createdAt,value
2022-10-13T00:00:54.550Z,7.30
2022-10-13T00:03:22.376Z,7.20
2022-10-13T00:05:52.804Z,7.10
2022-10-13T00:08:22.746Z,7.10
2022-10-13T00:10:52.352Z,7.20
2022-10-13T00:13:21.165Z,7.20
2022-10-13T00:15:50.327Z,7.30
2022-10-13T00:18:18.398Z,7.30
2022-10-13T00:20:48.064Z,7.40
2022-10-13T00:23:16.343Z,7.50
2022-10-13T00:25:45.251Z,7.60
2022-10-13T00:28:13.245Z,7.80
2022-10-13T00:30:41.694Z,7.80
2022-10-13T00:33:12.159Z,7.60
2022-10-13T00:35:43.072Z,7.60
2022-10-13T00:38:11.315Z,7.60
2022-10-13T00:40:45.244Z,7.70
2022-10-13T00:43:20.329Z,7.90
2022-10-13T00:45:50.607Z,8.00
2022-10-13T00:48:23.230Z,8.10
2022-10-13T00:50:51.610Z,8.30
2022-10-13T00:53:22.306Z,8.40
2022-10-13T00:55:52.492Z,8.60
2022-10-13T00:58:24.354Z,8.70
2022-10-13T01:00:53.724Z,8.80
2022-10-13T01:03:23.496Z,8.90
2022-10-13T01:05:53.537Z,8.90
2022-10-13T01:08:22.772Z,8.90
2022-10-13T01:11:03.384Z,8.90
2022-10-13T01:13:40.571Z,9.00
2022-10-13T01:16:13.653Z,9.10
2022-10-13T01:18:52.161Z,9.10
2022-10-13T01:21:27.313Z,9.20
2022-10-13T01:24:29.327Z,9.20
2022-10-13T01:27:32.215Z,9.30
2022-10-13T01:30:19.876Z,9.40
2022-10-13T01:33:29.247Z,9.50
2022-10-13T01:36:05.754Z,9.50
2022-10-13T01:38:38.113Z,9.60
2022-10-13T01:41:12.646Z,9.60
2022-10-13T01:43:44.701Z,9.60
2022-10-13T01:46:18.593Z,9.70
2022-10-13T01:48:46.854Z,9.70
2022-10-13T01:51:21.255Z,9.70
2022-10-13T01:53:50.064Z,9.70
2022-10-13T01:56:18.030Z,9.80
2022-10-13T01:58:46.540Z,9.80
2022-10-13T02:01:30.095Z,9.80
2022-10-13T02:04:12.093Z,9.90
2022-10-13T02:06:45.911Z,9.90
2022-10-13T02:09:20.879Z,10.00
2022-10-13T02:11:53.023Z,10.00
2022-10-13T02:14:26.260Z,10.00
2022-10-13T02:16:56.929Z,10.00
2022-10-13T02:19:25.297Z,10.00
2022-10-13T02:21:54.222Z,10.00
2022-10-13T02:24:22.071Z,10.10
2022-10-13T02:26:50.921Z,10.10
2022-10-13T02:29:19.383Z,10.10
2022-10-13T02:31:48.231Z,10.10
2022-10-13T02:34:17.440Z,10.10
2022-10-13T02:36:45.216Z,10.10
2022-10-13T02:39:13.275Z,10.10
2022-10-13T02:41:41.071Z,10.10
2022-10-13T02:44:08.900Z,10.10
2022-10-13T02:46:36.808Z,10.10
2022-10-13T02:49:04.679Z,10.10
2022-10-13T02:51:38.982Z,10.10
2022-10-13T02:54:07.840Z,10.10
2022-10-13T02:56:35.695Z,10.20
2022-10-13T02:59:03.609Z,10.10
2022-10-13T03:01:31.435Z,10.10
2022-10-13T03:03:59.296Z,10.00
2022-10-13T03:06:27.109Z,9.90
2022-10-13T03:08:56.311Z,9.80
2022-10-13T03:11:24.112Z,9.70
2022-10-13T03:13:51.946Z,9.60
2022-10-13T03:16:20.552Z,9.40
2022-10-13T03:18:48.360Z,9.30
2022-10-13T03:21:16.205Z,9.20
2022-10-13T03:23:43.967Z,9.20
2022-10-13T03:26:13.084Z,9.10
2022-10-13T03:28:40.877Z,9.00
2022-10-13T03:31:10.506Z,9.00
2022-10-13T03:33:38.287Z,9.00
2022-10-13T03:36:07.404Z,8.90
2022-10-13T03:38:36.885Z,8.90
2022-10-13T03:41:08.972Z,8.70
2022-10-13T03:43:38.956Z,8.60
2022-10-13T03:46:08.235Z,8.50
2022-10-13T03:48:37.140Z,8.40
2022-10-13T03:51:07.332Z,8.30
2022-10-13T03:53:35.505Z,8.30
2022-10-13T03:56:04.087Z,8.20
2022-10-13T03:58:31.877Z,8.10
2022-10-13T04:01:06.325Z,8.00
2022-10-13T04:03:34.735Z,7.80
2022-10-13T04:06:03.449Z,7.70
2022-10-13T04:08:31.708Z,7.70
2022-10-13T04:11:00.780Z,7.90
2022-10-13T04:13:28.605Z,7.90
2022-10-13T04:15:56.399Z,7.80
2022-10-13T04:18:25.535Z,7.50
2022-10-13T04:20:53.316Z,7.40
2022-10-13T04:23:21.170Z,7.30
2022-10-13T04:25:48.988Z,7.30
2022-10-13T04:28:17.374Z,7.40
2022-10-13T04:30:49.267Z,7.40
2022-10-13T04:33:17.661Z,7.30
2022-10-13T04:35:46.852Z,7.20
2022-10-13T04:38:14.632Z,7.10
2022-10-13T04:40:42.433Z,7.00
2022-10-13T04:43:10.231Z,7.00
2022-10-13T04:45:38.000Z,6.90
2022-10-13T04:48:06.004Z,6.80
2022-10-13T04:50:33.773Z,6.60
2022-10-13T04:53:03.052Z,6.60
2022-10-13T04:55:30.871Z,6.60
2022-10-13T04:57:58.640Z,6.60
2022-10-13T05:00:26.684Z,6.60
2022-10-13T05:02:54.536Z,6.50
2022-10-13T05:05:22.296Z,6.50
2022-10-13T05:07:50.133Z,6.40
2022-10-13T05:10:19.291Z,6.40
2022-10-13T05:12:47.155Z,6.40
2022-10-13T05:15:14.969Z,6.50
2022-10-13T05:17:42.700Z,6.60
2022-10-13T05:20:11.629Z,6.60
2022-10-13T05:22:39.548Z,6.60
2022-10-13T05:25:07.703Z,6.60
2022-10-13T05:27:36.919Z,6.60
2022-10-13T05:30:04.966Z,6.60
2022-10-13T05:32:32.760Z,6.80
2022-10-13T05:35:00.609Z,7.10
2022-10-13T05:37:28.474Z,7.10
2022-10-13T05:39:56.258Z,6.90
2022-10-13T05:42:24.032Z,6.60
2022-10-13T05:44:53.153Z,6.40
2022-10-13T05:47:23.064Z,6.30
2022-10-13T05:49:50.876Z,6.30
2022-10-13T05:52:19.170Z,6.40
2022-10-13T05:54:51.679Z,6.60
2022-10-13T05:57:23.148Z,6.70
2022-10-13T05:59:56.132Z,6.80
2022-10-13T06:02:27.332Z,6.80
2022-10-13T06:04:58.098Z,6.90
2022-10-13T06:07:26.274Z,6.90
2022-10-13T06:09:54.403Z,7.00
2022-10-13T06:12:22.423Z,7.00
2022-10-13T06:14:50.456Z,7.00
2022-10-13T06:17:19.574Z,7.00
2022-10-13T06:19:47.378Z,7.10
2022-10-13T06:22:15.292Z,7.30
2022-10-13T06:24:43.088Z,7.70
2022-10-13T06:27:11.676Z,7.90
2022-10-13T06:29:39.519Z,8.00
2022-10-13T06:32:07.566Z,8.20
2022-10-13T06:34:36.912Z,8.20
2022-10-13T06:37:04.676Z,8.30
2022-10-13T06:39:32.484Z,8.40
2022-10-13T06:42:00.282Z,8.40
2022-10-13T06:44:28.050Z,8.50
2022-10-13T06:46:55.868Z,8.60
2022-10-13T06:49:24.439Z,8.60
2022-10-13T06:51:53.692Z,8.50
2022-10-13T06:54:22.178Z,8.60
2022-10-13T06:56:49.964Z,8.70
2022-10-13T06:59:17.782Z,8.90
2022-10-13T07:01:45.551Z,8.90
2022-10-13T07:04:13.433Z,9.00
2022-10-13T07:06:41.386Z,9.10
2022-10-13T07:09:11.353Z,9.30
2022-10-13T07:11:39.232Z,9.30
2022-10-13T07:14:07.053Z,9.50
2022-10-13T07:16:34.859Z,9.60
2022-10-13T07:19:02.761Z,9.70
2022-10-13T07:21:30.577Z,9.80
2022-10-13T07:23:58.421Z,10.10
2022-10-13T07:26:27.536Z,10.40
2022-10-13T07:28:55.620Z,10.60
2022-10-13T07:31:23.403Z,10.70
2022-10-13T07:33:51.710Z,10.50
2022-10-13T07:36:20.078Z,10.70
2022-10-13T07:38:47.971Z,10.90
2022-10-13T07:41:16.276Z,11.10
2022-10-13T07:43:45.606Z,11.20
2022-10-13T07:46:14.810Z,11.30
2022-10-13T07:48:42.907Z,11.40
2022-10-13T07:51:13.348Z,11.70
2022-10-13T07:53:41.963Z,12.10
2022-10-13T07:56:12.585Z,12.50
2022-10-13T07:58:43.652Z,12.80
2022-10-13T08:01:14.271Z,13.00
2022-10-13T08:03:45.762Z,13.10
2022-10-13T08:06:17.935Z,13.20
2022-10-13T08:08:45.856Z,13.20
2022-10-13T08:11:16.869Z,13.10
2022-10-13T08:13:48.604Z,13.40
2022-10-13T08:16:18.638Z,13.60
2022-10-13T08:18:46.631Z,13.70
2022-10-13T08:21:45.852Z,13.90
2022-10-13T08:24:05.973Z,14.00
2022-10-13T08:26:34.072Z,14.00
2022-10-13T08:29:21.896Z,13.90
2022-10-13T08:31:51.543Z,13.70
2022-10-13T08:34:19.607Z,13.70
2022-10-13T08:36:47.416Z,13.80
2022-10-13T08:39:15.390Z,13.70
2022-10-13T08:41:44.778Z,14.00
2022-10-13T08:47:16.617Z,14.20
2022-10-13T08:49:46.180Z,14.30
2022-10-13T08:52:19.722Z,14.30
2022-10-13T08:54:48.102Z,14.40
2022-10-13T08:57:16.045Z,14.50
2022-10-13T08:59:43.820Z,14.60
2022-10-13T09:02:15.620Z,14.80
2022-10-13T09:04:49.257Z,14.90
2022-10-13T09:07:21.226Z,15.10
2022-10-13T09:09:52.583Z,14.70
2022-10-13T09:12:24.205Z,14.60
2022-10-13T09:15:01.217Z,14.90
2022-10-13T09:17:31.200Z,15.10
2022-10-13T09:20:01.605Z,15.20
2022-10-13T09:22:30.855Z,15.20
2022-10-13T09:25:16.294Z,15.30
2022-10-13T09:27:47.396Z,15.40
2022-10-13T09:30:30.210Z,15.60
2022-10-13T09:33:15.078Z,15.70
2022-10-13T09:35:44.758Z,15.70
2022-10-13T09:38:15.607Z,15.70
2022-10-13T09:40:44.934Z,15.70
2022-10-13T09:43:30.986Z,15.50
2022-10-13T09:45:59.846Z,15.40
2022-10-13T09:48:31.695Z,15.50
2022-10-13T09:50:59.905Z,15.80
2022-10-13T09:53:33.290Z,16.00
2022-10-13T09:56:18.258Z,16.30
2022-10-13T09:58:51.618Z,16.60
2022-10-13T10:01:25.076Z,16.60
2022-10-13T10:03:55.899Z,16.30
2022-10-13T10:06:27.688Z,16.40
2022-10-13T10:09:03.809Z,16.60
2022-10-13T10:11:38.704Z,16.90
2022-10-13T10:14:17.463Z,16.60
2022-10-13T10:16:50.487Z,16.40
2022-10-13T10:19:23.592Z,16.50
2022-10-13T10:21:55.446Z,16.70
2022-10-13T10:24:31.792Z,16.80
2022-10-13T10:27:04.433Z,16.70
2022-10-13T10:29:41.554Z,16.80
2022-10-13T10:32:22.994Z,16.90
2022-10-13T10:34:57.992Z,16.80
2022-10-13T10:37:39.727Z,16.80
2022-10-13T10:40:22.201Z,16.60
2022-10-13T10:43:09.723Z,16.40
2022-10-13T10:45:40.626Z,16.30
2022-10-13T10:48:18.271Z,15.90
2022-10-13T10:50:48.060Z,15.80
2022-10-13T10:53:22.748Z,15.80
2022-10-13T10:55:56.072Z,15.80
2022-10-13T10:58:39.314Z,15.70
2022-10-13T11:01:15.768Z,16.00
2022-10-13T11:03:49.008Z,16.20
2022-10-13T11:06:27.148Z,16.20
2022-10-13T11:08:55.595Z,16.30
2022-10-13T11:11:40.798Z,16.40
2022-10-13T11:14:30.770Z,16.50
2022-10-13T11:17:28.468Z,16.80
2022-10-13T11:19:57.215Z,16.90
2022-10-13T11:22:27.430Z,16.90
2022-10-13T11:25:01.697Z,17.00
2022-10-13T11:27:40.740Z,16.70
2022-10-13T11:30:47.302Z,16.80
2022-10-13T11:33:35.655Z,16.80
2022-10-13T11:36:46.504Z,16.80
2022-10-13T11:39:50.754Z,16.90
2022-10-13T11:42:34.519Z,16.80
2022-10-13T11:45:05.524Z,16.70
2022-10-13T11:48:01.303Z,16.50
2022-10-13T11:50:38.337Z,16.70
2022-10-13T11:53:17.273Z,16.60
2022-10-13T11:55:50.675Z,16.70
2022-10-13T11:58:20.715Z,17.10
2022-10-13T12:00:53.069Z,17.40
2022-10-13T12:03:22.539Z,17.50
2022-10-13T12:05:51.241Z,17.30
2022-10-13T12:08:21.261Z,17.20
2022-10-13T12:10:57.164Z,17.40
2022-10-13T12:13:27.418Z,17.50
2022-10-13T12:16:03.008Z,17.80
2022-10-13T12:18:34.066Z,17.80
2022-10-13T12:21:04.519Z,17.40
2022-10-13T12:23:33.588Z,17.30
2022-10-13T12:26:03.203Z,17.50
2022-10-13T12:28:45.213Z,17.60
2022-10-13T12:31:20.292Z,17.50
2022-10-13T12:33:54.741Z,17.50
2022-10-13T12:36:26.266Z,17.70
2022-10-13T12:38:57.570Z,17.70
2022-10-13T12:41:31.638Z,17.80
2022-10-13T12:44:03.907Z,17.90
2022-10-13T12:46:38.810Z,17.90
2022-10-13T12:49:06.969Z,17.80
2022-10-13T12:51:37.201Z,17.50
2022-10-13T12:54:09.268Z,17.40
2022-10-13T12:56:38.372Z,17.60
2022-10-13T12:59:06.152Z,17.70
2022-10-13T13:01:35.526Z,17.70
2022-10-13T13:04:17.611Z,17.40
2022-10-13T13:06:54.448Z,17.40
2022-10-13T13:09:28.208Z,17.30
2022-10-13T13:12:20.859Z,17.30
2022-10-13T13:14:51.008Z,17.10
2022-10-13T13:20:26.709Z,17.00
2022-10-13T13:22:54.585Z,17.00
2022-10-13T13:25:22.882Z,17.10
2022-10-13T13:27:52.682Z,17.00
2022-10-13T13:30:23.034Z,16.70
2022-10-13T13:32:51.233Z,16.60
2022-10-13T13:35:19.429Z,16.50
2022-10-13T13:37:50.468Z,16.50
2022-10-13T13:40:20.430Z,16.40
2022-10-13T13:42:48.401Z,16.50
2022-10-13T13:45:19.715Z,16.40
2022-10-13T13:47:47.923Z,16.40
2022-10-13T13:50:19.603Z,16.40
2022-10-13T13:52:47.399Z,16.40
2022-10-13T13:55:15.424Z,16.40
2022-10-13T13:57:43.958Z,16.40
2022-10-13T14:00:13.560Z,16.40
2022-10-13T14:02:43.579Z,16.40
2022-10-13T14:05:12.357Z,16.30
2022-10-13T14:07:40.522Z,16.40
2022-10-13T14:10:10.648Z,16.40
2022-10-13T14:12:38.764Z,16.40
2022-10-13T14:15:08.473Z,16.30
2022-10-13T14:17:36.264Z,16.30
2022-10-13T14:20:06.393Z,16.20
2022-10-13T14:22:34.296Z,16.20
2022-10-13T14:25:02.055Z,16.10
2022-10-13T14:27:30.779Z,16.10
2022-10-13T14:29:58.541Z,16.00
2022-10-13T14:32:26.364Z,16.00
2022-10-13T14:34:54.116Z,16.00
2022-10-13T14:37:25.012Z,15.90
2022-10-13T14:39:54.519Z,15.80
2022-10-13T14:42:22.282Z,15.80
2022-10-13T14:44:50.047Z,15.70
2022-10-13T14:47:18.204Z,15.70
2022-10-13T14:49:46.159Z,15.50
2022-10-13T14:52:13.971Z,15.50
2022-10-13T14:54:45.076Z,15.40
2022-10-13T14:57:15.818Z,15.40
2022-10-13T14:59:44.248Z,15.40
2022-10-13T15:02:12.967Z,15.40
2022-10-13T15:04:41.228Z,15.30
2022-10-13T15:07:09.234Z,15.40
2022-10-13T15:09:53.067Z,15.30
2022-10-13T15:12:26.579Z,15.30
2022-10-13T15:14:54.351Z,15.20
2022-10-13T15:17:22.147Z,15.20
2022-10-13T15:19:50.054Z,15.10
2022-10-13T15:22:18.067Z,15.00
2022-10-13T15:24:46.890Z,15.00
2022-10-13T15:27:14.707Z,15.00
2022-10-13T15:29:43.877Z,15.00
2022-10-13T15:32:13.472Z,14.90
2022-10-13T15:34:41.367Z,14.90
2022-10-13T15:37:09.175Z,14.90
2022-10-13T15:39:37.296Z,14.80
2022-10-13T15:42:05.825Z,14.70
2022-10-13T15:44:57.447Z,14.70
2022-10-13T15:47:23.176Z,14.60
2022-10-13T15:49:50.932Z,14.60
2022-10-13T15:52:18.925Z,14.60
2022-10-13T15:54:48.684Z,14.60
2022-10-13T15:57:16.430Z,14.50
2022-10-13T15:59:44.187Z,14.50
2022-10-13T16:02:12.010Z,14.50
2022-10-13T16:04:41.132Z,14.50
2022-10-13T16:07:08.931Z,14.40
2022-10-13T16:09:36.688Z,14.30
2022-10-13T16:12:04.680Z,14.20
2022-10-13T16:14:33.218Z,14.10
2022-10-13T16:17:01.017Z,14.10
2022-10-13T16:19:28.893Z,14.00
2022-10-13T16:21:58.089Z,13.90
2022-10-13T16:24:27.032Z,13.90
2022-10-13T16:26:54.821Z,13.90
2022-10-13T16:29:22.572Z,13.90
2022-10-13T16:31:50.480Z,13.80
2022-10-13T16:34:18.517Z,13.80
2022-10-13T16:36:46.507Z,13.80
2022-10-13T16:39:16.003Z,13.80
2022-10-13T16:41:43.808Z,13.70
2022-10-13T16:44:11.724Z,13.60
2022-10-13T16:46:40.134Z,13.60
2022-10-13T16:49:07.925Z,13.60
2022-10-13T16:51:35.783Z,13.60
2022-10-13T16:54:04.607Z,13.60
2022-10-13T16:56:33.899Z,13.60
2022-10-13T16:59:03.414Z,13.50
2022-10-13T17:01:31.793Z,13.40
2022-10-13T17:04:00.163Z,13.40
2022-10-13T17:06:29.794Z,13.40
2022-10-13T17:08:59.517Z,13.40
2022-10-13T17:11:29.895Z,13.30
2022-10-13T17:14:00.112Z,13.20
2022-10-13T17:16:28.492Z,13.10
2022-10-13T17:18:57.049Z,13.10
2022-10-13T17:21:25.024Z,13.00
2022-10-13T17:23:52.813Z,13.00
2022-10-13T17:26:21.030Z,13.00
2022-10-13T17:28:49.375Z,12.90
2022-10-13T17:31:20.629Z,12.90
2022-10-13T17:33:49.919Z,12.80
2022-10-13T17:36:20.216Z,12.80
2022-10-13T17:38:49.166Z,12.80
2022-10-13T17:41:18.074Z,12.80
2022-10-13T17:43:45.995Z,12.80
2022-10-13T17:46:39.453Z,12.80
2022-10-13T17:49:11.373Z,12.80
2022-10-13T17:51:39.406Z,12.70
2022-10-13T17:54:11.437Z,12.70
2022-10-13T17:56:42.420Z,12.70
2022-10-13T17:59:10.799Z,12.70
2022-10-13T18:01:41.844Z,12.60
2022-10-13T18:04:13.953Z,12.60
2022-10-13T18:06:43.876Z,12.60
2022-10-13T18:09:13.654Z,12.60
2022-10-13T18:11:47.091Z,12.60
2022-10-13T18:14:18.322Z,12.60
2022-10-13T18:16:46.658Z,12.60
2022-10-13T18:19:15.817Z,12.60
2022-10-13T18:21:43.724Z,12.60
2022-10-13T18:24:12.072Z,12.70
2022-10-13T18:26:41.422Z,12.70
2022-10-13T18:29:11.643Z,12.70
2022-10-13T18:31:41.422Z,12.60
2022-10-13T18:34:11.387Z,12.60
2022-10-13T18:36:42.249Z,12.50
2022-10-13T18:39:13.129Z,12.50
2022-10-13T18:41:41.282Z,12.50
2022-10-13T18:44:09.629Z,12.50
2022-10-13T18:46:38.682Z,12.50
2022-10-13T18:49:08.461Z,12.40
2022-10-13T18:51:36.716Z,12.40
2022-10-13T18:54:06.833Z,12.40
2022-10-13T18:56:36.683Z,12.50
2022-10-13T18:59:06.012Z,12.50
2022-10-13T19:01:35.620Z,12.50
2022-10-13T19:04:04.077Z,12.50
2022-10-13T19:06:32.591Z,12.50
2022-10-13T19:09:01.612Z,12.50
2022-10-13T19:11:31.085Z,12.50
2022-10-13T19:14:00.137Z,12.50
2022-10-13T19:16:29.883Z,12.40
2022-10-13T19:18:58.106Z,12.40
2022-10-13T19:21:26.168Z,12.40
2022-10-13T19:23:55.003Z,12.30
2022-10-13T19:26:25.865Z,12.30
2022-10-13T19:28:57.269Z,12.30
2022-10-13T19:31:27.333Z,12.30
2022-10-13T19:33:55.239Z,12.20
2022-10-13T19:36:25.464Z,12.20
2022-10-13T19:38:53.328Z,12.30
2022-10-13T19:41:21.338Z,12.20
2022-10-13T19:43:49.311Z,12.20
2022-10-13T19:46:18.513Z,12.20
2022-10-13T19:48:46.845Z,12.10
2022-10-13T19:51:14.918Z,12.10
2022-10-13T19:53:43.302Z,12.10
2022-10-13T19:56:20.615Z,12.10
2022-10-13T19:58:48.695Z,12.00
2022-10-13T20:01:18.953Z,12.00
2022-10-13T20:03:47.309Z,11.90
2022-10-13T20:06:15.965Z,11.90
2022-10-13T20:08:44.864Z,11.90
2022-10-13T20:11:17.293Z,11.80
2022-10-13T20:13:49.234Z,11.80
2022-10-13T20:16:20.865Z,11.80
2022-10-13T20:18:52.929Z,11.80
2022-10-13T20:21:20.784Z,11.80
2022-10-13T20:23:48.791Z,11.70
2022-10-13T20:26:17.531Z,11.60
2022-10-13T20:28:46.553Z,11.60
2022-10-13T20:31:16.480Z,11.60
2022-10-13T20:33:46.841Z,11.60
2022-10-13T20:36:17.179Z,11.50
2022-10-13T20:38:45.185Z,11.50
2022-10-13T20:41:16.857Z,11.50
2022-10-13T20:43:45.100Z,11.50
2022-10-13T20:46:13.164Z,11.50
2022-10-13T20:51:20.295Z,11.40
2022-10-13T20:53:48.773Z,11.40
2022-10-13T20:56:19.045Z,11.40
2022-10-13T20:58:47.222Z,11.30
2022-10-13T21:01:15.197Z,11.30
2022-10-13T21:03:43.179Z,11.30
2022-10-13T21:06:13.911Z,11.20
2022-10-13T21:08:46.378Z,11.20
2022-10-13T21:11:16.337Z,11.20
2022-10-13T21:13:45.332Z,11.20
2022-10-13T21:16:14.815Z,11.20
2022-10-13T21:18:47.831Z,11.20
2022-10-13T21:21:17.344Z,11.30
2022-10-13T21:23:46.492Z,11.40
2022-10-13T21:26:18.851Z,11.40
2022-10-13T21:28:49.159Z,11.40
2022-10-13T21:31:17.863Z,11.40
2022-10-13T21:33:46.099Z,11.30
2022-10-13T21:36:16.512Z,11.30
2022-10-13T21:38:46.659Z,11.30
2022-10-13T21:41:15.827Z,11.30
2022-10-13T21:43:43.693Z,11.30
2022-10-13T21:46:12.889Z,11.20
2022-10-13T21:48:40.751Z,11.20
2022-10-13T21:51:13.375Z,11.10
2022-10-13T21:53:41.431Z,11.10
2022-10-13T21:56:12.497Z,11.20
2022-10-13T21:58:40.309Z,11.20
2022-10-13T22:01:08.786Z,11.20
2022-10-13T22:03:36.858Z,11.20
2022-10-13T22:06:06.731Z,11.20
2022-10-13T22:08:38.850Z,11.20
2022-10-13T22:11:08.556Z,11.10
2022-10-13T22:13:38.533Z,11.10
2022-10-13T22:16:08.350Z,11.10
2022-10-13T22:18:36.143Z,11.10
2022-10-13T22:21:05.805Z,11.10
2022-10-13T22:23:34.003Z,11.10
2022-10-13T22:26:01.788Z,11.10
2022-10-13T22:28:33.438Z,11.10
2022-10-13T22:31:06.481Z,11.10
2022-10-13T22:33:35.899Z,11.10
2022-10-13T22:36:07.436Z,11.20
2022-10-13T22:38:35.414Z,11.20
2022-10-13T22:41:03.970Z,11.20
2022-10-13T22:43:31.847Z,11.20
2022-10-13T22:46:01.813Z,11.20
2022-10-13T22:48:31.092Z,11.20
2022-10-13T22:50:58.870Z,11.20
2022-10-13T22:53:26.619Z,11.20
2022-10-13T22:55:54.350Z,11.30
2022-10-13T22:58:22.117Z,11.30
2022-10-13T23:00:49.879Z,11.30
2022-10-13T23:03:17.948Z,11.30
2022-10-13T23:05:49.741Z,11.30
2022-10-13T23:08:17.533Z,11.30
2022-10-13T23:10:45.275Z,11.30
2022-10-13T23:13:13.072Z,11.30
2022-10-13T23:15:40.859Z,11.30
2022-10-13T23:18:08.626Z,11.30
2022-10-13T23:20:40.110Z,11.30
2022-10-13T23:23:09.642Z,11.30
2022-10-13T23:25:38.404Z,11.30
2022-10-13T23:28:06.235Z,11.20
2022-10-13T23:30:33.983Z,11.20
2022-10-13T23:33:01.739Z,11.10
2022-10-13T23:35:29.511Z,11.10
2022-10-13T23:37:57.398Z,11.10
2022-10-13T23:40:26.491Z,11.10
2022-10-13T23:42:54.284Z,11.10
2022-10-13T23:45:22.044Z,11.10
2022-10-13T23:47:49.787Z,11.10
2022-10-13T23:50:17.612Z,11.00
2022-10-13T23:52:45.389Z,11.00
2022-10-13T23:55:13.130Z,11.10
2022-10-13T23:57:42.207Z,11.10
